Lumen N — 3FPC4 — position and weather

sailwx.info

Track history (hours):
 
Tides and Currents Weather Stations Pressure Air Temp Water Temp Dewpoint Dewpoint Depression Visibility Wind Speed Wind Dir Waves Ship Positions

Lumen N

Last reported at 2017-Nov-19 02:23 UTC. Time now 2017-Nov-21 04:02 UTC.
Position N 48°14' W 007°52'.

Length 228 m; draft 12.2 m.

Type: Tanker. MMSI: 355364000.

Date/timePositionNaut miles runAvg speedWind from/ knotsBaromVisibWave heightAir tempDewpointWater temp
2017-Nov-19 02:23N 48°14' W 007°52'1212.4
2017-Nov-19 01:27N 48°21' W 007°38'912.7
2017-Nov-19 00:43N 48°26' W 007°27'612.9
2017-Nov-19 00:15N 48°30' W 007°19'1113.4
2017-Nov-18 23:28N 48°36' W 007°07'913.8
2017-Nov-18 22:48N 48°41' W 006°55'413.9
2017-Nov-18 22:30N 48°44' W 006°50'814.2
2017-Nov-18 21:58N 48°48' W 006°41'714.4
2017-Nov-18 21:27N 48°52' W 006°31'814.4
2017-Nov-18 20:54N 48°57' W 006°21'1114.1
2017-Nov-18 20:06N 49°03' W 006°08'1613.5
2017-Nov-18 18:56N 49°12' W 005°48'6012.1
2017-Nov-18 14:02N 49°41' W 004°28'113.0
2017-Nov-18 13:56N 49°42' W 004°26'1012.6
2017-Nov-18 13:07N 49°45' W 004°11'112.8
2017-Nov-18 13:00N 49°45' W 004°09'713.1
2017-Nov-18 12:27N 49°48' W 003°58'813.1
2017-Nov-18 11:52N 49°50' W 003°47'513.2
2017-Nov-18 11:28N 49°52' W 003°39'1013.1
2017-Nov-18 10:42N 49°55' W 003°24'313.0
2017-Nov-18 10:30N 49°56' W 003°21'713.5
2017-Nov-18 10:00N 49°58' W 003°11'613.1
2017-Nov-18 09:30N 49°60' W 003°01'612.5
2017-Nov-18 09:00N 50°02' W 002°51'611.9
2017-Nov-18 08:30N 50°03' W 002°43'611.3
2017-Nov-18 08:00N 50°05' W 002°34'2711.0
2017-Nov-18 05:30N 50°12' W 001°53'612.2
2017-Nov-18 05:00N 50°14' W 001°43'612.8
2017-Nov-18 04:30N 50°16' W 001°34'612.8
2017-Nov-18 04:00N 50°17' W 001°24'712.8
2017-Nov-18 03:28N 50°19' W 001°14'3513.5
2017-Nov-18 00:52N 50°29' W 000°21'513.2
2017-Nov-18 00:30N 50°30' W 000°14'713.6
2017-Nov-18 00:00N 50°32' W 000°04'713.2
2017-Nov-17 23:30N 50°33' E 000°06'613.0
2017-Nov-17 23:01N 50°35' E 000°16'613.0
2017-Nov-17 22:31N 50°37' E 000°26'612.5
2017-Nov-17 22:00N 50°39' E 000°35'612.4
2017-Nov-17 21:31N 50°42' E 000°43'612.5
2017-Nov-17 21:01N 50°46' E 000°51'612.6
2017-Nov-17 20:31N 50°50' E 000°60'712.6
2017-Nov-17 19:59N 50°54' E 001°07'612.4
2017-Nov-17 19:30N 50°58' E 001°14'713.5
2017-Nov-17 19:00N 51°02' E 001°23'714.3
2017-Nov-17 18:30N 51°07' E 001°32'713.8
2017-Nov-17 18:01N 51°10' E 001°41'713.3
2017-Nov-17 17:30N 51°15' E 001°48'713.1
2017-Nov-17 17:00N 51°20' E 001°54'611.8
2017-Nov-17 16:30N 51°24' E 002°01'612.9
2017-Nov-17 16:00N 51°22' E 002°11'612.4
2017-Nov-17 15:30N 51°21' E 002°20'712.5
2017-Nov-17 14:57N 51°23' E 002°31'612.4
2017-Nov-17 14:29N 51°23' E 002°40'511.4
2017-Nov-17 14:00N 51°25' E 002°49'611.8
2017-Nov-17 13:31N 51°25' E 002°58'611.7
2017-Nov-17 13:00N 51°24' E 003°07'611.3
2017-Nov-17 12:30N 51°25' E 003°16'510.8
2017-Nov-17 12:00N 51°25' E 003°25'510.0
2017-Nov-17 11:30N 51°26' E 003°33'4 7.4
2017-Nov-17 11:00N 51°26' E 003°39'4 8.9
2017-Nov-17 10:30N 51°23' E 003°43'510.4
2017-Nov-17 10:00N 51°21' E 003°51'510.0
2017-Nov-17 09:30N 51°24' E 003°57'3 6.3
2017-Nov-17 09:00N 51°25' E 004°02'4 8.2
2017-Nov-17 08:30N 51°22' E 004°07'4 8.0
2017-Nov-17 08:00N 51°22' E 004°13'3 5.9
2017-Nov-17 07:30N 51°21' E 004°17'0 0.1
2017-Nov-17 07:00N 51°21' E 004°17'0 0.0
2017-Nov-17 06:30N 51°21' E 004°17'0 0.7
2017-Nov-17 06:00N 51°21' E 004°18'0 0.8
2017-Nov-17 05:25N 51°20' E 004°18'0 0.0
2017-Nov-17 04:55N 51°20' E 004°18'0 0.0
2017-Nov-17 04:19N 51°20' E 004°18'0 0.0
2017-Nov-17 03:55N 51°20' E 004°18'0 0.0
2017-Nov-17 03:31N 51°20' E 004°18'0 0.0
2017-Nov-17 02:58N 51°20' E 004°18'0 0.0
2017-Nov-17 02:25N 51°20' E 004°18'0 0.0
2017-Nov-17 01:58N 51°20' E 004°18'0 0.0
2017-Nov-17 01:25N 51°20' E 004°18'0 0.0
2017-Nov-17 00:49N 51°20' E 004°18'0 0.0
2017-Nov-17 00:19N 51°20' E 004°18'0 0.0
2017-Nov-16 23:55N 51°20' E 004°18'0 0.0
2017-Nov-16 23:28N 51°20' E 004°18'0 0.0
2017-Nov-16 22:55N 51°20' E 004°18'0 0.0
2017-Nov-16 22:31N 51°20' E 004°18'0 0.0
2017-Nov-16 21:37N 51°20' E 004°18'0 0.0
2017-Nov-16 21:13N 51°20' E 004°18'0 0.0
2017-Nov-16 20:58N 51°20' E 004°18'0 0.0
2017-Nov-16 20:28N 51°20' E 004°18'0 0.0
2017-Nov-16 20:01N 51°20' E 004°18'0 0.0
2017-Nov-16 19:31N 51°20' E 004°18'0 0.0
2017-Nov-16 19:01N 51°20' E 004°18'0 0.0
2017-Nov-16 18:28N 51°20' E 004°18'0 0.0
2017-Nov-16 18:01N 51°20' E 004°18'0 0.0
2017-Nov-16 17:25N 51°20' E 004°18'0 0.0
2017-Nov-16 17:01N 51°20' E 004°18'0 0.0
2017-Nov-16 16:04N 51°20' E 004°18'0 0.0
2017-Nov-16 15:40N 51°20' E 004°18'0 0.0
2017-Nov-16 15:28N 51°20' E 004°18'0 0.0
2017-Nov-16 14:58N 51°20' E 004°18'0 0.0
2017-Nov-16 14:31N 51°20' E 004°18'0 0.0
2017-Nov-16 13:46N 51°20' E 004°18'0 0.0
2017-Nov-16 13:31N 51°20' E 004°18'0 0.0
2017-Nov-16 12:55N 51°20' E 004°18'0 0.0
2017-Nov-16 12:28N 51°20' E 004°18'0 0.0
2017-Nov-16 11:55N 51°20' E 004°18'0 0.0
2017-Nov-16 11:31N 51°20' E 004°18'0 0.0
2017-Nov-16 10:55N 51°20' E 004°18'0 0.0
2017-Nov-16 10:22N 51°20' E 004°18'0 0.0
2017-Nov-16 09:58N 51°20' E 004°18'0 0.0
2017-Nov-16 09:25N 51°20' E 004°18'0 0.0
2017-Nov-16 08:25N 51°20' E 004°18'0 0.0
2017-Nov-16 07:58N 51°20' E 004°18'0 0.0
2017-Nov-16 07:31N 51°20' E 004°18'0 0.0
2017-Nov-16 07:01N 51°20' E 004°18'0 0.0
2017-Nov-16 06:31N 51°20' E 004°18'0 0.0
2017-Nov-16 06:01N 51°20' E 004°18'0 0.0
2017-Nov-16 05:31N 51°20' E 004°18'0 0.0
2017-Nov-16 05:01N 51°20' E 004°18'0 0.0
2017-Nov-16 04:25N 51°20' E 004°18'0 0.0
2017-Nov-16 03:57N 51°20' E 004°18'0 0.0
2017-Nov-16 03:28N 51°20' E 004°18'0 0.0
2017-Nov-16 03:00N 51°20' E 004°18'0 0.0
2017-Nov-16 02:06N 51°20' E 004°18'0 0.0
2017-Nov-16 01:46N 51°20' E 004°18'0 0.0
2017-Nov-16 01:25N 51°20' E 004°18'0 0.0
2017-Nov-16 00:57N 51°20' E 004°18'0 0.0
2017-Nov-16 00:31N 51°20' E 004°18'0 0.0
2017-Nov-16 00:01N 51°20' E 004°18'0 0.0
2017-Nov-15 23:31N 51°20' E 004°18'0 0.0
2017-Nov-15 23:00N 51°20' E 004°18'0 0.0
2017-Nov-15 22:24N 51°20' E 004°18'0 0.0
2017-Nov-15 22:01N 51°20' E 004°18'0 0.0
2017-Nov-15 21:30N 51°20' E 004°18'0 0.0
2017-Nov-15 20:57N 51°20' E 004°18'0 0.0
2017-Nov-15 20:30N 51°20' E 004°18'0 0.0
2017-Nov-15 20:00N 51°20' E 004°18'0 0.0
2017-Nov-15 19:27N 51°20' E 004°18'0 0.0
2017-Nov-15 19:00N 51°20' E 004°18'0 0.0
2017-Nov-15 18:25N 51°20' E 004°18'0 0.0
2017-Nov-15 17:58N 51°20' E 004°18'0 0.0
2017-Nov-15 17:30N 51°20' E 004°18'0 0.0
2017-Nov-15 17:00N 51°20' E 004°18'0 0.0
2017-Nov-15 16:30N 51°20' E 004°18'0 0.0
2017-Nov-15 16:00N 51°20' E 004°18'0 0.0
2017-Nov-15 15:27N 51°20' E 004°18'0 0.0
2017-Nov-15 14:58N 51°20' E 004°18'0 0.0
2017-Nov-15 14:30N 51°20' E 004°18'0 0.0
2017-Nov-15 13:57N 51°20' E 004°18'0 0.0
2017-Nov-15 13:28N 51°20' E 004°18'0 0.0
2017-Nov-15 12:55N 51°20' E 004°18'0 0.0
2017-Nov-15 12:28N 51°20' E 004°18'0 0.0
2017-Nov-15 12:00N 51°20' E 004°18'0 0.0
2017-Nov-15 11:27N 51°20' E 004°18'0 0.0
2017-Nov-15 11:00N 51°20' E 004°18'0 0.0
2017-Nov-15 10:31N 51°20' E 004°18'0 0.0
2017-Nov-15 10:00N 51°20' E 004°18'0 0.0
2017-Nov-15 09:30N 51°20' E 004°18'0 0.0
2017-Nov-15 08:57N 51°20' E 004°18'0 0.0
2017-Nov-15 08:30N 51°20' E 004°18'0 0.0
2017-Nov-15 08:00N 51°20' E 004°18'0 0.0
2017-Nov-15 07:31N 51°20' E 004°18'0 0.0
2017-Nov-15 06:57N 51°20' E 004°18'0 0.0
2017-Nov-15 06:30N 51°20' E 004°18'0 0.0
2017-Nov-15 06:00N 51°20' E 004°18'0 0.0
2017-Nov-15 05:27N 51°20' E 004°18'0 0.0
2017-Nov-15 05:00N 51°20' E 004°18'0 0.0
2017-Nov-15 04:30N 51°20' E 004°18'0 0.0
2017-Nov-15 03:54N 51°20' E 004°18'0 0.0
2017-Nov-15 03:30N 51°20' E 004°18'0 0.0
2017-Nov-15 03:00N 51°20' E 004°18'0 0.0
2017-Nov-15 02:30N 51°20' E 004°18'0 0.0
2017-Nov-15 01:57N 51°20' E 004°18'0 0.0
2017-Nov-15 01:21N 51°20' E 004°18'0 0.0
2017-Nov-15 01:00N 51°20' E 004°18'0 0.0
2017-Nov-15 00:30N 51°20' E 004°18'0 0.0
2017-Nov-14 23:57N 51°20' E 004°18'0 0.0
2017-Nov-14 23:25N 51°20' E 004°18'0 0.0
2017-Nov-14 22:54N 51°20' E 004°18'0 0.0
2017-Nov-14 22:28N 51°20' E 004°18'0 0.0
2017-Nov-14 22:00N 51°20' E 004°18'0 0.0
2017-Nov-14 21:30N 51°20' E 004°18'0 0.0
2017-Nov-14 21:00N 51°20' E 004°18'0 0.7
2017-Nov-14 20:30N 51°21' E 004°18'0 0.9
2017-Nov-14 20:01N 51°21' E 004°17'0 0.0
2017-Nov-14 19:30N 51°21' E 004°17'0 0.5
2017-Nov-14 19:00N 51°21' E 004°17'2 3.5
2017-Nov-14 18:30N 51°21' E 004°14'3 6.2
2017-Nov-14 18:00N 51°23' E 004°10'4 8.5
2017-Nov-14 17:30N 51°22' E 004°04'5 9.0
2017-Nov-14 17:00N 51°26' E 004°00'611.1
2017-Nov-14 16:30N 51°22' E 003°55'510.4
2017-Nov-14 16:00N 51°21' E 003°46'5 9.7
2017-Nov-14 15:30N 51°25' E 003°42'4 8.1
2017-Nov-14 15:00N 51°25' E 003°35'4 7.5
2017-Nov-14 14:30N 51°25' E 003°29'4 7.1
2017-Nov-14 14:00N 51°24' E 003°24'4 8.2
2017-Nov-14 13:30N 51°24' E 003°17'4 7.8
2017-Nov-14 13:00N 51°24' E 003°11'5 9.4
2017-Nov-14 12:30N 51°24' E 003°03'510.9
2017-Nov-14 12:00N 51°22' E 002°55'612.1
2017-Nov-14 11:30N 51°22' E 002°46'4 8.5
2017-Nov-14 11:00N 51°24' E 002°40'1 2.7
2017-Nov-14 10:29N 51°24' E 002°38'0 0.1
2017-Nov-14 09:59N 51°24' E 002°38'0 0.0
2017-Nov-14 09:26N 51°24' E 002°38'0 0.0
2017-Nov-14 08:59N 51°24' E 002°38'0 0.1
2017-Nov-14 08:29N 51°24' E 002°38'0 0.0
2017-Nov-14 07:59N 51°24' E 002°38'0 0.0
2017-Nov-14 07:29N 51°24' E 002°38'0 0.2
2017-Nov-14 06:56N 51°24' E 002°37'0 0.3
2017-Nov-14 06:29N 51°24' E 002°37'0 0.1
2017-Nov-14 05:59N 51°24' E 002°37'0 0.0
2017-Nov-14 05:26N 51°24' E 002°37'0 0.0
2017-Nov-14 04:56N 51°24' E 002°37'0 0.0
2017-Nov-14 04:29N 51°24' E 002°37'0 0.0
2017-Nov-14 03:59N 51°24' E 002°37'0 0.2
2017-Nov-14 03:20N 51°24' E 002°37'0 0.1
2017-Nov-14 02:53N 51°24' E 002°37'0 0.0
2017-Nov-14 01:47N 51°24' E 002°38'0 0.0
2017-Nov-14 01:23N 51°24' E 002°38'0 0.0
2017-Nov-14 00:50N 51°24' E 002°37'0 0.1
2017-Nov-14 00:26N 51°24' E 002°38'0 0.1
2017-Nov-13 23:50N 51°24' E 002°38'0 0.0
2017-Nov-13 23:29N 51°24' E 002°38'0 0.0
2017-Nov-13 22:50N 51°24' E 002°38'0 0.0
2017-Nov-13 22:20N 51°24' E 002°38'0 0.0
2017-Nov-13 21:50N 51°24' E 002°38'0 0.0
2017-Nov-13 00:59N 51°24' E 002°37'0 0.0
2017-Nov-13 00:11N 51°24' E 002°37'0 0.1
2017-Nov-12 23:53N 51°24' E 002°37'0 0.0
2017-Nov-12 23:26N 51°24' E 002°37'0 0.0
2017-Nov-12 22:20N 51°24' E 002°37'0 0.0
2017-Nov-12 21:50N 51°24' E 002°37'0 0.1
2017-Nov-12 21:26N 51°24' E 002°37'0 0.0
2017-Nov-12 20:29N 51°24' E 002°37'0 0.1
2017-Nov-12 19:57N 51°24' E 002°37'0 1.0
2017-Nov-12 19:29N 51°24' E 002°37'0 0.1
2017-Nov-12 18:47N 51°24' E 002°37'0 0.2
2017-Nov-12 18:29N 51°24' E 002°37'0 0.0
2017-Nov-12 17:47N 51°24' E 002°37'0 0.1
2017-Nov-12 17:11N 51°24' E 002°37'0 0.3
2017-Nov-12 16:53N 51°24' E 002°37'0 0.0
2017-Nov-12 16:23N 51°24' E 002°37'0 0.0
2017-Nov-12 15:56N 51°24' E 002°37'0 0.0
2017-Nov-12 15:29N 51°24' E 002°37'0 0.0
2017-Nov-12 14:56N 51°24' E 002°37'0 0.0
2017-Nov-12 14:26N 51°24' E 002°37'0 0.0
2017-Nov-12 13:53N 51°24' E 002°37'0 0.0
2017-Nov-12 12:05N 51°24' E 002°37'0 0.5
2017-Nov-12 11:53N 51°24' E 002°37'0 0.3
2017-Nov-12 11:26N 51°24' E 002°37'0 0.2
2017-Nov-12 10:53N 51°24' E 002°37'0 0.1
2017-Nov-12 10:20N 51°24' E 002°37'0 0.1
2017-Nov-12 09:53N 51°24' E 002°37'0 0.0
2017-Nov-12 09:29N 51°24' E 002°37'0 0.1
2017-Nov-12 08:56N 51°24' E 002°37'0 0.0
2017-Nov-12 08:20N 51°24' E 002°37'0 0.0
2017-Nov-12 07:59N 51°24' E 002°37'0 0.1
2017-Nov-12 07:29N 51°24' E 002°37'0 0.1
2017-Nov-12 06:56N 51°24' E 002°37'0 0.0
2017-Nov-12 06:17N 51°24' E 002°37'0 0.1
2017-Nov-12 05:53N 51°24' E 002°37'0 0.0
2017-Nov-12 05:29N 51°24' E 002°37'0 0.1
2017-Nov-12 04:56N 51°24' E 002°37'0 0.1
2017-Nov-12 03:29N 51°24' E 002°37'0 0.0
2017-Nov-12 02:59N 51°24' E 002°37'0 0.0
2017-Nov-12 02:26N 51°24' E 002°37'0 0.0
2017-Nov-12 01:56N 51°24' E 002°37'0 0.0
2017-Nov-12 01:26N 51°24' E 002°37'0 0.0
2017-Nov-12 00:59N 51°24' E 002°37'0 0.0
2017-Nov-12 00:20N 51°24' E 002°37'0 0.1
2017-Nov-11 23:56N 51°24' E 002°37'0 0.0
2017-Nov-11 23:29N 51°24' E 002°37'0 0.1
2017-Nov-11 22:59N 51°24' E 002°37'0 0.1
2017-Nov-11 22:23N 51°24' E 002°37'0 0.0
2017-Nov-11 21:59N 51°24' E 002°37'0 0.1
2017-Nov-11 21:26N 51°24' E 002°37'0 0.1
2017-Nov-11 20:59N 51°24' E 002°37'0 0.1
2017-Nov-11 20:20N 51°24' E 002°37'0 0.0
2017-Nov-11 19:56N 51°24' E 002°37'0 0.0
2017-Nov-11 19:29N 51°24' E 002°37'0 0.0
2017-Nov-11 18:59N 51°24' E 002°37'0 0.0
2017-Nov-11 18:29N 51°24' E 002°37'0 0.0
2017-Nov-11 17:59N 51°24' E 002°37'0 0.0
2017-Nov-11 17:26N 51°24' E 002°37'0 0.1
2017-Nov-11 16:59N 51°24' E 002°37'0 0.0
2017-Nov-11 16:23N 51°24' E 002°37'0 0.1
2017-Nov-11 15:50N 51°24' E 002°37'0 0.1
2017-Nov-11 15:26N 51°24' E 002°37'0 0.0
2017-Nov-11 14:59N 51°24' E 002°37'0 0.0
2017-Nov-11 14:17N 51°24' E 002°37'0 0.0
2017-Nov-11 13:47N 51°24' E 002°37'0 0.0
2017-Nov-11 13:23N 51°24' E 002°37'0 0.1
2017-Nov-11 12:53N 51°24' E 002°37'0 0.0
2017-Nov-11 12:20N 51°24' E 002°37'0 0.0
2017-Nov-11 11:47N 51°24' E 002°37'0 0.0
2017-Nov-11 11:17N 51°24' E 002°37'0 0.2
2017-Nov-11 10:50N 51°24' E 002°37'0 0.2
2017-Nov-11 10:29N 51°24' E 002°37'0 0.1
2017-Nov-11 09:59N 51°24' E 002°37'0 0.0
2017-Nov-11 09:29N 51°24' E 002°37'0 0.0
2017-Nov-11 08:59N 51°24' E 002°37'0 0.0
2017-Nov-11 08:29N 51°24' E 002°37'0 0.0
2017-Nov-11 07:59N 51°24' E 002°37'0 0.0
2017-Nov-11 07:29N 51°24' E 002°37'0 0.0
2017-Nov-11 06:59N 51°24' E 002°37'0 0.0
2017-Nov-11 06:20N 51°24' E 002°37'0 0.0
2017-Nov-11 05:59N 51°24' E 002°37'0 0.0
2017-Nov-11 05:14N 51°24' E 002°37'0 0.1
2017-Nov-11 04:59N 51°24' E 002°37'0 0.0
2017-Nov-11 04:29N 51°24' E 002°37'0 0.1
2017-Nov-11 03:50N 51°24' E 002°37'0 0.1
2017-Nov-11 03:17N 51°24' E 002°37'0 0.1
2017-Nov-11 02:59N 51°24' E 002°37'0 0.1
2017-Nov-11 02:29N 51°24' E 002°37'0 0.1
2017-Nov-11 01:50N 51°24' E 002°37'0 0.0
2017-Nov-11 01:17N 51°24' E 002°37'0 0.0
2017-Nov-11 00:59N 51°24' E 002°37'0 0.0
2017-Nov-11 00:29N 51°24' E 002°37'0 0.1
2017-Nov-10 23:56N 51°24' E 002°37'0 0.0
2017-Nov-10 23:29N 51°24' E 002°37'0 0.0
2017-Nov-10 22:56N 51°24' E 002°37'0 0.0
2017-Nov-10 22:29N 51°24' E 002°37'0 0.0
2017-Nov-10 21:59N 51°24' E 002°37'0 0.0
2017-Nov-10 21:29N 51°24' E 002°37'0 0.2
2017-Nov-10 20:59N 51°24' E 002°37'0 0.0
2017-Nov-10 20:26N 51°24' E 002°37'0 0.1
2017-Nov-10 19:59N 51°24' E 002°37'0 0.1
2017-Nov-10 19:29N 51°24' E 002°37'0 0.0
2017-Nov-10 18:59N 51°24' E 002°37'0 0.0
2017-Nov-10 18:29N 51°24' E 002°37'0 0.0
2017-Nov-10 17:59N 51°24' E 002°37'0 0.0
2017-Nov-10 17:29N 51°24' E 002°37'0 0.0
2017-Nov-10 16:59N 51°24' E 002°37'0 0.0
2017-Nov-10 16:29N 51°24' E 002°37'0 0.0
2017-Nov-10 15:56N 51°24' E 002°37'0 0.1
2017-Nov-10 15:29N 51°24' E 002°37'0 0.1
2017-Nov-10 14:47N 51°24' E 002°37'0 0.0
2017-Nov-10 14:26N 51°24' E 002°37'0 0.0
2017-Nov-10 13:59N 51°24' E 002°37'0 0.0
2017-Nov-10 13:29N 51°24' E 002°37'0 0.0
2017-Nov-10 12:56N 51°24' E 002°37'0 0.0
2017-Nov-10 12:29N 51°24' E 002°37'0 0.0
2017-Nov-10 11:44N 51°24' E 002°37'0 0.2
2017-Nov-10 11:29N 51°24' E 002°37'0 0.1
2017-Nov-10 10:59N 51°24' E 002°37'0 0.1
2017-Nov-10 10:20N 51°24' E 002°37'0 0.1
2017-Nov-10 09:59N 51°24' E 002°37'0 0.1
2017-Nov-10 09:11N 51°24' E 002°37'0 0.1
2017-Nov-10 08:53N 51°24' E 002°37'0 0.0
2017-Nov-10 08:23N 51°24' E 002°37'0 0.0
2017-Nov-10 07:59N 51°24' E 002°37'0 0.1
2017-Nov-10 07:26N 51°24' E 002°37'0 0.0
2017-Nov-10 06:59N 51°24' E 002°37'0 0.0
2017-Nov-10 06:20N 51°24' E 002°37'0 0.0
2017-Nov-10 05:59N 51°24' E 002°37'0 0.0
2017-Nov-10 05:29N 51°24' E 002°37'0 0.1
2017-Nov-10 04:50N 51°24' E 002°37'0 0.0
2017-Nov-10 04:29N 51°24' E 002°37'0 0.1
2017-Nov-10 03:59N 51°24' E 002°37'0 0.1
2017-Nov-10 03:29N 51°24' E 002°37'0 0.1
2017-Nov-10 02:59N 51°24' E 002°37'0 0.2
2017-Nov-10 02:26N 51°24' E 002°37'0 0.2
2017-Nov-10 01:59N 51°24' E 002°37'0 0.1
2017-Nov-10 01:29N 51°24' E 002°37'0 0.0
2017-Nov-10 00:59N 51°24' E 002°37'0 0.0
2017-Nov-10 00:29N 51°24' E 002°37'0 0.0
2017-Nov-09 23:44N 51°24' E 002°37'0 0.0
2017-Nov-09 23:23N 51°24' E 002°37'0 0.1
2017-Nov-09 22:53N 51°24' E 002°37'0 0.0
2017-Nov-09 22:08N 51°24' E 002°37'0 0.2
2017-Nov-09 21:59N 51°24' E 002°37'0 0.1
2017-Nov-09 21:29N 51°24' E 002°37'0 0.1
2017-Nov-09 20:53N 51°24' E 002°37'0 0.1
2017-Nov-09 20:29N 51°24' E 002°37'0 0.2
2017-Nov-09 19:56N 51°24' E 002°37'0 0.1
2017-Nov-09 19:29N 51°24' E 002°37'0 0.1
2017-Nov-09 18:53N 51°24' E 002°37'0 0.0
2017-Nov-09 18:29N 51°24' E 002°37'0 0.0
2017-Nov-09 17:59N 51°24' E 002°37'0 0.0
2017-Nov-09 17:29N 51°24' E 002°37'0 0.0
2017-Nov-09 16:59N 51°24' E 002°37'0 0.0
2017-Nov-09 16:20N 51°24' E 002°37'0 0.0
2017-Nov-09 15:53N 51°24' E 002°37'0 0.0
2017-Nov-09 15:26N 51°24' E 002°37'0 0.1
2017-Nov-09 14:50N 51°24' E 002°37'0 0.0
2017-Nov-09 14:29N 51°24' E 002°37'0 0.1
2017-Nov-09 13:59N 51°24' E 002°37'1 1.3
2017-Nov-09 12:56N 51°23' E 002°35'1 3.4
2017-Nov-09 12:30N 51°23' E 002°33'4 8.1
2017-Nov-09 12:00N 51°21' E 002°27'611.4
2017-Nov-09 11:30N 51°18' E 002°20'612.4
2017-Nov-09 11:00N 51°15' E 002°11'611.5
2017-Nov-09 10:30N 51°12' E 002°03'611.5
2017-Nov-09 10:01N 51°10' E 001°55'611.4
2017-Nov-09 09:31N 51°07' E 001°47'611.1
2017-Nov-09 09:00N 51°03' E 001°41'611.2
2017-Nov-09 08:30N 50°59' E 001°34'611.4
2017-Nov-09 07:59N 50°55' E 001°28'611.8
2017-Nov-09 07:29N 50°49' E 001°25'612.0
2017-Nov-09 06:58N 50°43' E 001°21'612.1
2017-Nov-09 06:29N 50°39' E 001°15'2012.3
2017-Nov-09 04:51N 50°29' E 000°48'2112.5
2017-Nov-09 03:11N 50°23' E 000°16'712.1
2017-Nov-09 02:35N 50°21' E 000°05'112.1
2017-Nov-09 02:29N 50°20' E 000°03'  
Track history (hours):
 
Tides and Currents Weather Stations Pressure Air Temp Water Temp Dewpoint Dewpoint Depression Visibility Wind Speed Wind Dir Waves Ship Positions

Lumen N

Last reported at 2017-Nov-19 02:23 UTC. Time now 2017-Nov-21 04:02 UTC.
Position N 48°14' W 007°52'.

Length 228 m; draft 12.2 m.

Type: Tanker. MMSI: 355364000.

Date/timePositionNaut miles runAvg speedWind from/ knotsBaromVisibWave heightAir tempDewpointWater temp
2017-Nov-19 02:23N 48°14' W 007°52'1212.4
2017-Nov-19 01:27N 48°21' W 007°38'912.7
2017-Nov-19 00:43N 48°26' W 007°27'612.9
2017-Nov-19 00:15N 48°30' W 007°19'1113.4
2017-Nov-18 23:28N 48°36' W 007°07'913.8
2017-Nov-18 22:48N 48°41' W 006°55'413.9
2017-Nov-18 22:30N 48°44' W 006°50'814.2
2017-Nov-18 21:58N 48°48' W 006°41'714.4
2017-Nov-18 21:27N 48°52' W 006°31'814.4
2017-Nov-18 20:54N 48°57' W 006°21'1114.1
2017-Nov-18 20:06N 49°03' W 006°08'1613.5
2017-Nov-18 18:56N 49°12' W 005°48'6012.1
2017-Nov-18 14:02N 49°41' W 004°28'113.0
2017-Nov-18 13:56N 49°42' W 004°26'1012.6
2017-Nov-18 13:07N 49°45' W 004°11'112.8
2017-Nov-18 13:00N 49°45' W 004°09'713.1
2017-Nov-18 12:27N 49°48' W 003°58'813.1
2017-Nov-18 11:52N 49°50' W 003°47'513.2
2017-Nov-18 11:28N 49°52' W 003°39'1013.1
2017-Nov-18 10:42N 49°55' W 003°24'313.0
2017-Nov-18 10:30N 49°56' W 003°21'713.5
2017-Nov-18 10:00N 49°58' W 003°11'613.1
2017-Nov-18 09:30N 49°60' W 003°01'612.5
2017-Nov-18 09:00N 50°02' W 002°51'611.9
2017-Nov-18 08:30N 50°03' W 002°43'611.3
2017-Nov-18 08:00N 50°05' W 002°34'2711.0
2017-Nov-18 05:30N 50°12' W 001°53'612.2
2017-Nov-18 05:00N 50°14' W 001°43'612.8
2017-Nov-18 04:30N 50°16' W 001°34'612.8
2017-Nov-18 04:00N 50°17' W 001°24'712.8
2017-Nov-18 03:28N 50°19' W 001°14'3513.5
2017-Nov-18 00:52N 50°29' W 000°21'513.2
2017-Nov-18 00:30N 50°30' W 000°14'713.6
2017-Nov-18 00:00N 50°32' W 000°04'713.2
2017-Nov-17 23:30N 50°33' E 000°06'613.0
2017-Nov-17 23:01N 50°35' E 000°16'613.0
2017-Nov-17 22:31N 50°37' E 000°26'612.5
2017-Nov-17 22:00N 50°39' E 000°35'612.4
2017-Nov-17 21:31N 50°42' E 000°43'612.5
2017-Nov-17 21:01N 50°46' E 000°51'612.6
2017-Nov-17 20:31N 50°50' E 000°60'712.6
2017-Nov-17 19:59N 50°54' E 001°07'612.4
2017-Nov-17 19:30N 50°58' E 001°14'713.5
2017-Nov-17 19:00N 51°02' E 001°23'714.3
2017-Nov-17 18:30N 51°07' E 001°32'713.8
2017-Nov-17 18:01N 51°10' E 001°41'713.3
2017-Nov-17 17:30N 51°15' E 001°48'713.1
2017-Nov-17 17:00N 51°20' E 001°54'611.8
2017-Nov-17 16:30N 51°24' E 002°01'612.9
2017-Nov-17 16:00N 51°22' E 002°11'612.4
2017-Nov-17 15:30N 51°21' E 002°20'712.5
2017-Nov-17 14:57N 51°23' E 002°31'612.4
2017-Nov-17 14:29N 51°23' E 002°40'511.4
2017-Nov-17 14:00N 51°25' E 002°49'611.8
2017-Nov-17 13:31N 51°25' E 002°58'611.7
2017-Nov-17 13:00N 51°24' E 003°07'611.3
2017-Nov-17 12:30N 51°25' E 003°16'510.8
2017-Nov-17 12:00N 51°25' E 003°25'510.0
2017-Nov-17 11:30N 51°26' E 003°33'4 7.4
2017-Nov-17 11:00N 51°26' E 003°39'4 8.9
2017-Nov-17 10:30N 51°23' E 003°43'510.4
2017-Nov-17 10:00N 51°21' E 003°51'510.0
2017-Nov-17 09:30N 51°24' E 003°57'3 6.3
2017-Nov-17 09:00N 51°25' E 004°02'4 8.2
2017-Nov-17 08:30N 51°22' E 004°07'4 8.0
2017-Nov-17 08:00N 51°22' E 004°13'3 5.9
2017-Nov-17 07:30N 51°21' E 004°17'0 0.1
2017-Nov-17 07:00N 51°21' E 004°17'0 0.0
2017-Nov-17 06:30N 51°21' E 004°17'0 0.7
2017-Nov-17 06:00N 51°21' E 004°18'0 0.8
2017-Nov-17 05:25N 51°20' E 004°18'0 0.0
2017-Nov-17 04:55N 51°20' E 004°18'0 0.0
2017-Nov-17 04:19N 51°20' E 004°18'0 0.0
2017-Nov-17 03:55N 51°20' E 004°18'0 0.0
2017-Nov-17 03:31N 51°20' E 004°18'0 0.0
2017-Nov-17 02:58N 51°20' E 004°18'0 0.0
2017-Nov-17 02:25N 51°20' E 004°18'0 0.0
2017-Nov-17 01:58N 51°20' E 004°18'0 0.0
2017-Nov-17 01:25N 51°20' E 004°18'0 0.0
2017-Nov-17 00:49N 51°20' E 004°18'0 0.0
2017-Nov-17 00:19N 51°20' E 004°18'0 0.0
2017-Nov-16 23:55N 51°20' E 004°18'0 0.0
2017-Nov-16 23:28N 51°20' E 004°18'0 0.0
2017-Nov-16 22:55N 51°20' E 004°18'0 0.0
2017-Nov-16 22:31N 51°20' E 004°18'0 0.0
2017-Nov-16 21:37N 51°20' E 004°18'0 0.0
2017-Nov-16 21:13N 51°20' E 004°18'0 0.0
2017-Nov-16 20:58N 51°20' E 004°18'0 0.0
2017-Nov-16 20:28N 51°20' E 004°18'0 0.0
2017-Nov-16 20:01N 51°20' E 004°18'0 0.0
2017-Nov-16 19:31N 51°20' E 004°18'0 0.0
2017-Nov-16 19:01N 51°20' E 004°18'0 0.0
2017-Nov-16 18:28N 51°20' E 004°18'0 0.0
2017-Nov-16 18:01N 51°20' E 004°18'0 0.0
2017-Nov-16 17:25N 51°20' E 004°18'0 0.0
2017-Nov-16 17:01N 51°20' E 004°18'0 0.0
2017-Nov-16 16:04N 51°20' E 004°18'0 0.0
2017-Nov-16 15:40N 51°20' E 004°18'0 0.0
2017-Nov-16 15:28N 51°20' E 004°18'0 0.0
2017-Nov-16 14:58N 51°20' E 004°18'0 0.0
2017-Nov-16 14:31N 51°20' E 004°18'0 0.0
2017-Nov-16 13:46N 51°20' E 004°18'0 0.0
2017-Nov-16 13:31N 51°20' E 004°18'0 0.0
2017-Nov-16 12:55N 51°20' E 004°18'0 0.0
2017-Nov-16 12:28N 51°20' E 004°18'0 0.0
2017-Nov-16 11:55N 51°20' E 004°18'0 0.0
2017-Nov-16 11:31N 51°20' E 004°18'0 0.0
2017-Nov-16 10:55N 51°20' E 004°18'0 0.0
2017-Nov-16 10:22N 51°20' E 004°18'0 0.0
2017-Nov-16 09:58N 51°20' E 004°18'0 0.0
2017-Nov-16 09:25N 51°20' E 004°18'0 0.0
2017-Nov-16 08:25N 51°20' E 004°18'0 0.0
2017-Nov-16 07:58N 51°20' E 004°18'0 0.0
2017-Nov-16 07:31N 51°20' E 004°18'0 0.0
2017-Nov-16 07:01N 51°20' E 004°18'0 0.0
2017-Nov-16 06:31N 51°20' E 004°18'0 0.0
2017-Nov-16 06:01N 51°20' E 004°18'0 0.0
2017-Nov-16 05:31N 51°20' E 004°18'0 0.0
2017-Nov-16 05:01N 51°20' E 004°18'0 0.0
2017-Nov-16 04:25N 51°20' E 004°18'0 0.0
2017-Nov-16 03:57N 51°20' E 004°18'0 0.0
2017-Nov-16 03:28N 51°20' E 004°18'0 0.0
2017-Nov-16 03:00N 51°20' E 004°18'0 0.0
2017-Nov-16 02:06N 51°20' E 004°18'0 0.0
2017-Nov-16 01:46N 51°20' E 004°18'0 0.0
2017-Nov-16 01:25N 51°20' E 004°18'0 0.0
2017-Nov-16 00:57N 51°20' E 004°18'0 0.0
2017-Nov-16 00:31N 51°20' E 004°18'0 0.0
2017-Nov-16 00:01N 51°20' E 004°18'0 0.0
2017-Nov-15 23:31N 51°20' E 004°18'0 0.0
2017-Nov-15 23:00N 51°20' E 004°18'0 0.0
2017-Nov-15 22:24N 51°20' E 004°18'0 0.0
2017-Nov-15 22:01N 51°20' E 004°18'0 0.0
2017-Nov-15 21:30N 51°20' E 004°18'0 0.0
2017-Nov-15 20:57N 51°20' E 004°18'0 0.0
2017-Nov-15 20:30N 51°20' E 004°18'0 0.0
2017-Nov-15 20:00N 51°20' E 004°18'0 0.0
2017-Nov-15 19:27N 51°20' E 004°18'0 0.0
2017-Nov-15 19:00N 51°20' E 004°18'0 0.0
2017-Nov-15 18:25N 51°20' E 004°18'0 0.0
2017-Nov-15 17:58N 51°20' E 004°18'0 0.0
2017-Nov-15 17:30N 51°20' E 004°18'0 0.0
2017-Nov-15 17:00N 51°20' E 004°18'0 0.0
2017-Nov-15 16:30N 51°20' E 004°18'0 0.0
2017-Nov-15 16:00N 51°20' E 004°18'0 0.0
2017-Nov-15 15:27N 51°20' E 004°18'0 0.0
2017-Nov-15 14:58N 51°20' E 004°18'0 0.0
2017-Nov-15 14:30N 51°20' E 004°18'0 0.0
2017-Nov-15 13:57N 51°20' E 004°18'0 0.0
2017-Nov-15 13:28N 51°20' E 004°18'0 0.0
2017-Nov-15 12:55N 51°20' E 004°18'0 0.0
2017-Nov-15 12:28N 51°20' E 004°18'0 0.0
2017-Nov-15 12:00N 51°20' E 004°18'0 0.0
2017-Nov-15 11:27N 51°20' E 004°18'0 0.0
2017-Nov-15 11:00N 51°20' E 004°18'0 0.0
2017-Nov-15 10:31N 51°20' E 004°18'0 0.0
2017-Nov-15 10:00N 51°20' E 004°18'0 0.0
2017-Nov-15 09:30N 51°20' E 004°18'0 0.0
2017-Nov-15 08:57N 51°20' E 004°18'0 0.0
2017-Nov-15 08:30N 51°20' E 004°18'0 0.0
2017-Nov-15 08:00N 51°20' E 004°18'0 0.0
2017-Nov-15 07:31N 51°20' E 004°18'0 0.0
2017-Nov-15 06:57N 51°20' E 004°18'0 0.0
2017-Nov-15 06:30N 51°20' E 004°18'0 0.0
2017-Nov-15 06:00N 51°20' E 004°18'0 0.0
2017-Nov-15 05:27N 51°20' E 004°18'0 0.0
2017-Nov-15 05:00N 51°20' E 004°18'0 0.0
2017-Nov-15 04:30N 51°20' E 004°18'0 0.0
2017-Nov-15 03:54N 51°20' E 004°18'0 0.0
2017-Nov-15 03:30N 51°20' E 004°18'0 0.0
2017-Nov-15 03:00N 51°20' E 004°18'0 0.0
2017-Nov-15 02:30N 51°20' E 004°18'0 0.0
2017-Nov-15 01:57N 51°20' E 004°18'0 0.0
2017-Nov-15 01:21N 51°20' E 004°18'0 0.0
2017-Nov-15 01:00N 51°20' E 004°18'0 0.0
2017-Nov-15 00:30N 51°20' E 004°18'0 0.0
2017-Nov-14 23:57N 51°20' E 004°18'0 0.0
2017-Nov-14 23:25N 51°20' E 004°18'0 0.0
2017-Nov-14 22:54N 51°20' E 004°18'0 0.0
2017-Nov-14 22:28N 51°20' E 004°18'0 0.0
2017-Nov-14 22:00N 51°20' E 004°18'0 0.0
2017-Nov-14 21:30N 51°20' E 004°18'0 0.0
2017-Nov-14 21:00N 51°20' E 004°18'0 0.7
2017-Nov-14 20:30N 51°21' E 004°18'0 0.9
2017-Nov-14 20:01N 51°21' E 004°17'0 0.0
2017-Nov-14 19:30N 51°21' E 004°17'0 0.5
2017-Nov-14 19:00N 51°21' E 004°17'2 3.5
2017-Nov-14 18:30N 51°21' E 004°14'3 6.2
2017-Nov-14 18:00N 51°23' E 004°10'4 8.5
2017-Nov-14 17:30N 51°22' E 004°04'5 9.0
2017-Nov-14 17:00N 51°26' E 004°00'611.1
2017-Nov-14 16:30N 51°22' E 003°55'510.4
2017-Nov-14 16:00N 51°21' E 003°46'5 9.7
2017-Nov-14 15:30N 51°25' E 003°42'4 8.1
2017-Nov-14 15:00N 51°25' E 003°35'4 7.5
2017-Nov-14 14:30N 51°25' E 003°29'4 7.1
2017-Nov-14 14:00N 51°24' E 003°24'4 8.2
2017-Nov-14 13:30N 51°24' E 003°17'4 7.8
2017-Nov-14 13:00N 51°24' E 003°11'5 9.4
2017-Nov-14 12:30N 51°24' E 003°03'510.9
2017-Nov-14 12:00N 51°22' E 002°55'612.1
2017-Nov-14 11:30N 51°22' E 002°46'4 8.5
2017-Nov-14 11:00N 51°24' E 002°40'1 2.7
2017-Nov-14 10:29N 51°24' E 002°38'0 0.1
2017-Nov-14 09:59N 51°24' E 002°38'0 0.0
2017-Nov-14 09:26N 51°24' E 002°38'0 0.0
2017-Nov-14 08:59N 51°24' E 002°38'0 0.1
2017-Nov-14 08:29N 51°24' E 002°38'0 0.0
2017-Nov-14 07:59N 51°24' E 002°38'0 0.0
2017-Nov-14 07:29N 51°24' E 002°38'0 0.2
2017-Nov-14 06:56N 51°24' E 002°37'0 0.3
2017-Nov-14 06:29N 51°24' E 002°37'0 0.1
2017-Nov-14 05:59N 51°24' E 002°37'0 0.0
2017-Nov-14 05:26N 51°24' E 002°37'0 0.0
2017-Nov-14 04:56N 51°24' E 002°37'0 0.0
2017-Nov-14 04:29N 51°24' E 002°37'0 0.0
2017-Nov-14 03:59N 51°24' E 002°37'0 0.2
2017-Nov-14 03:20N 51°24' E 002°37'0 0.1
2017-Nov-14 02:53N 51°24' E 002°37'0 0.0
2017-Nov-14 01:47N 51°24' E 002°38'0 0.0
2017-Nov-14 01:23N 51°24' E 002°38'0 0.0
2017-Nov-14 00:50N 51°24' E 002°37'0 0.1
2017-Nov-14 00:26N 51°24' E 002°38'0 0.1
2017-Nov-13 23:50N 51°24' E 002°38'0 0.0
2017-Nov-13 23:29N 51°24' E 002°38'0 0.0
2017-Nov-13 22:50N 51°24' E 002°38'0 0.0
2017-Nov-13 22:20N 51°24' E 002°38'0 0.0
2017-Nov-13 21:50N 51°24' E 002°38'0 0.0
2017-Nov-13 00:59N 51°24' E 002°37'0 0.0
2017-Nov-13 00:11N 51°24' E 002°37'0 0.1
2017-Nov-12 23:53N 51°24' E 002°37'0 0.0
2017-Nov-12 23:26N 51°24' E 002°37'0 0.0
2017-Nov-12 22:20N 51°24' E 002°37'0 0.0
2017-Nov-12 21:50N 51°24' E 002°37'0 0.1
2017-Nov-12 21:26N 51°24' E 002°37'0 0.0
2017-Nov-12 20:29N 51°24' E 002°37'0 0.1
2017-Nov-12 19:57N 51°24' E 002°37'0 1.0
2017-Nov-12 19:29N 51°24' E 002°37'0 0.1
2017-Nov-12 18:47N 51°24' E 002°37'0 0.2
2017-Nov-12 18:29N 51°24' E 002°37'0 0.0
2017-Nov-12 17:47N 51°24' E 002°37'0 0.1
2017-Nov-12 17:11N 51°24' E 002°37'0 0.3
2017-Nov-12 16:53N 51°24' E 002°37'0 0.0
2017-Nov-12 16:23N 51°24' E 002°37'0 0.0
2017-Nov-12 15:56N 51°24' E 002°37'0 0.0
2017-Nov-12 15:29N 51°24' E 002°37'0 0.0
2017-Nov-12 14:56N 51°24' E 002°37'0 0.0
2017-Nov-12 14:26N 51°24' E 002°37'0 0.0
2017-Nov-12 13:53N 51°24' E 002°37'0 0.0
2017-Nov-12 12:05N 51°24' E 002°37'0 0.5
2017-Nov-12 11:53N 51°24' E 002°37'0 0.3
2017-Nov-12 11:26N 51°24' E 002°37'0 0.2
2017-Nov-12 10:53N 51°24' E 002°37'0 0.1
2017-Nov-12 10:20N 51°24' E 002°37'0 0.1
2017-Nov-12 09:53N 51°24' E 002°37'0 0.0
2017-Nov-12 09:29N 51°24' E 002°37'0 0.1
2017-Nov-12 08:56N 51°24' E 002°37'0 0.0
2017-Nov-12 08:20N 51°24' E 002°37'0 0.0
2017-Nov-12 07:59N 51°24' E 002°37'0 0.1
2017-Nov-12 07:29N 51°24' E 002°37'0 0.1
2017-Nov-12 06:56N 51°24' E 002°37'0 0.0
2017-Nov-12 06:17N 51°24' E 002°37'0 0.1
2017-Nov-12 05:53N 51°24' E 002°37'0 0.0
2017-Nov-12 05:29N 51°24' E 002°37'0 0.1
2017-Nov-12 04:56N 51°24' E 002°37'0 0.1
2017-Nov-12 03:29N 51°24' E 002°37'0 0.0
2017-Nov-12 02:59N 51°24' E 002°37'0 0.0
2017-Nov-12 02:26N 51°24' E 002°37'0 0.0
2017-Nov-12 01:56N 51°24' E 002°37'0 0.0
2017-Nov-12 01:26N 51°24' E 002°37'0 0.0
2017-Nov-12 00:59N 51°24' E 002°37'0 0.0
2017-Nov-12 00:20N 51°24' E 002°37'0 0.1
2017-Nov-11 23:56N 51°24' E 002°37'0 0.0
2017-Nov-11 23:29N 51°24' E 002°37'0 0.1
2017-Nov-11 22:59N 51°24' E 002°37'0 0.1
2017-Nov-11 22:23N 51°24' E 002°37'0 0.0
2017-Nov-11 21:59N 51°24' E 002°37'0 0.1
2017-Nov-11 21:26N 51°24' E 002°37'0 0.1
2017-Nov-11 20:59N 51°24' E 002°37'0 0.1
2017-Nov-11 20:20N 51°24' E 002°37'0 0.0
2017-Nov-11 19:56N 51°24' E 002°37'0 0.0
2017-Nov-11 19:29N 51°24' E 002°37'0 0.0
2017-Nov-11 18:59N 51°24' E 002°37'0 0.0
2017-Nov-11 18:29N 51°24' E 002°37'0 0.0
2017-Nov-11 17:59N 51°24' E 002°37'0 0.0
2017-Nov-11 17:26N 51°24' E 002°37'0 0.1
2017-Nov-11 16:59N 51°24' E 002°37'0 0.0
2017-Nov-11 16:23N 51°24' E 002°37'0 0.1
2017-Nov-11 15:50N 51°24' E 002°37'0 0.1
2017-Nov-11 15:26N 51°24' E 002°37'0 0.0
2017-Nov-11 14:59N 51°24' E 002°37'0 0.0
2017-Nov-11 14:17N 51°24' E 002°37'0 0.0
2017-Nov-11 13:47N 51°24' E 002°37'0 0.0
2017-Nov-11 13:23N 51°24' E 002°37'0 0.1
2017-Nov-11 12:53N 51°24' E 002°37'0 0.0
2017-Nov-11 12:20N 51°24' E 002°37'0 0.0
2017-Nov-11 11:47N 51°24' E 002°37'0 0.0
2017-Nov-11 11:17N 51°24' E 002°37'0 0.2
2017-Nov-11 10:50N 51°24' E 002°37'0 0.2
2017-Nov-11 10:29N 51°24' E 002°37'0 0.1
2017-Nov-11 09:59N 51°24' E 002°37'0 0.0
2017-Nov-11 09:29N 51°24' E 002°37'0 0.0
2017-Nov-11 08:59N 51°24' E 002°37'0 0.0
2017-Nov-11 08:29N 51°24' E 002°37'0 0.0
2017-Nov-11 07:59N 51°24' E 002°37'0 0.0
2017-Nov-11 07:29N 51°24' E 002°37'0 0.0
2017-Nov-11 06:59N 51°24' E 002°37'0 0.0
2017-Nov-11 06:20N 51°24' E 002°37'0 0.0
2017-Nov-11 05:59N 51°24' E 002°37'0 0.0
2017-Nov-11 05:14N 51°24' E 002°37'0 0.1
2017-Nov-11 04:59N 51°24' E 002°37'0 0.0
2017-Nov-11 04:29N 51°24' E 002°37'0 0.1
2017-Nov-11 03:50N 51°24' E 002°37'0 0.1
2017-Nov-11 03:17N 51°24' E 002°37'0 0.1
2017-Nov-11 02:59N 51°24' E 002°37'0 0.1
2017-Nov-11 02:29N 51°24' E 002°37'0 0.1
2017-Nov-11 01:50N 51°24' E 002°37'0 0.0
2017-Nov-11 01:17N 51°24' E 002°37'0 0.0
2017-Nov-11 00:59N 51°24' E 002°37'0 0.0
2017-Nov-11 00:29N 51°24' E 002°37'0 0.1
2017-Nov-10 23:56N 51°24' E 002°37'0 0.0
2017-Nov-10 23:29N 51°24' E 002°37'0 0.0
2017-Nov-10 22:56N 51°24' E 002°37'0 0.0
2017-Nov-10 22:29N 51°24' E 002°37'0 0.0
2017-Nov-10 21:59N 51°24' E 002°37'0 0.0
2017-Nov-10 21:29N 51°24' E 002°37'0 0.2
2017-Nov-10 20:59N 51°24' E 002°37'0 0.0
2017-Nov-10 20:26N 51°24' E 002°37'0 0.1
2017-Nov-10 19:59N 51°24' E 002°37'0 0.1
2017-Nov-10 19:29N 51°24' E 002°37'0 0.0
2017-Nov-10 18:59N 51°24' E 002°37'0 0.0
2017-Nov-10 18:29N 51°24' E 002°37'0 0.0
2017-Nov-10 17:59N 51°24' E 002°37'0 0.0
2017-Nov-10 17:29N 51°24' E 002°37'0 0.0
2017-Nov-10 16:59N 51°24' E 002°37'0 0.0
2017-Nov-10 16:29N 51°24' E 002°37'0 0.0
2017-Nov-10 15:56N 51°24' E 002°37'0 0.1
2017-Nov-10 15:29N 51°24' E 002°37'0 0.1
2017-Nov-10 14:47N 51°24' E 002°37'0 0.0
2017-Nov-10 14:26N 51°24' E 002°37'0 0.0
2017-Nov-10 13:59N 51°24' E 002°37'0 0.0
2017-Nov-10 13:29N 51°24' E 002°37'0 0.0
2017-Nov-10 12:56N 51°24' E 002°37'0 0.0
2017-Nov-10 12:29N 51°24' E 002°37'0 0.0
2017-Nov-10 11:44N 51°24' E 002°37'0 0.2
2017-Nov-10 11:29N 51°24' E 002°37'0 0.1
2017-Nov-10 10:59N 51°24' E 002°37'0 0.1
2017-Nov-10 10:20N 51°24' E 002°37'0 0.1
2017-Nov-10 09:59N 51°24' E 002°37'0 0.1
2017-Nov-10 09:11N 51°24' E 002°37'0 0.1
2017-Nov-10 08:53N 51°24' E 002°37'0 0.0
2017-Nov-10 08:23N 51°24' E 002°37'0 0.0
2017-Nov-10 07:59N 51°24' E 002°37'0 0.1
2017-Nov-10 07:26N 51°24' E 002°37'0 0.0
2017-Nov-10 06:59N 51°24' E 002°37'0 0.0
2017-Nov-10 06:20N 51°24' E 002°37'0 0.0
2017-Nov-10 05:59N 51°24' E 002°37'0 0.0
2017-Nov-10 05:29N 51°24' E 002°37'0 0.1
2017-Nov-10 04:50N 51°24' E 002°37'0 0.0
2017-Nov-10 04:29N 51°24' E 002°37'0 0.1
2017-Nov-10 03:59N 51°24' E 002°37'0 0.1
2017-Nov-10 03:29N 51°24' E 002°37'0 0.1
2017-Nov-10 02:59N 51°24' E 002°37'0 0.2
2017-Nov-10 02:26N 51°24' E 002°37'0 0.2
2017-Nov-10 01:59N 51°24' E 002°37'0 0.1
2017-Nov-10 01:29N 51°24' E 002°37'0 0.0
2017-Nov-10 00:59N 51°24' E 002°37'0 0.0
2017-Nov-10 00:29N 51°24' E 002°37'0 0.0
2017-Nov-09 23:44N 51°24' E 002°37'0 0.0
2017-Nov-09 23:23N 51°24' E 002°37'0 0.1
2017-Nov-09 22:53N 51°24' E 002°37'0 0.0
2017-Nov-09 22:08N 51°24' E 002°37'0 0.2
2017-Nov-09 21:59N 51°24' E 002°37'0 0.1
2017-Nov-09 21:29N 51°24' E 002°37'0 0.1
2017-Nov-09 20:53N 51°24' E 002°37'0 0.1
2017-Nov-09 20:29N 51°24' E 002°37'0 0.2
2017-Nov-09 19:56N 51°24' E 002°37'0 0.1
2017-Nov-09 19:29N 51°24' E 002°37'0 0.1
2017-Nov-09 18:53N 51°24' E 002°37'0 0.0
2017-Nov-09 18:29N 51°24' E 002°37'0 0.0
2017-Nov-09 17:59N 51°24' E 002°37'0 0.0
2017-Nov-09 17:29N 51°24' E 002°37'0 0.0
2017-Nov-09 16:59N 51°24' E 002°37'0 0.0
2017-Nov-09 16:20N 51°24' E 002°37'0 0.0
2017-Nov-09 15:53N 51°24' E 002°37'0 0.0
2017-Nov-09 15:26N 51°24' E 002°37'0 0.1
2017-Nov-09 14:50N 51°24' E 002°37'0 0.0
2017-Nov-09 14:29N 51°24' E 002°37'0 0.1
2017-Nov-09 13:59N 51°24' E 002°37'1 1.3
2017-Nov-09 12:56N 51°23' E 002°35'1 3.4
2017-Nov-09 12:30N 51°23' E 002°33'4 8.1
2017-Nov-09 12:00N 51°21' E 002°27'611.4
2017-Nov-09 11:30N 51°18' E 002°20'612.4
2017-Nov-09 11:00N 51°15' E 002°11'611.5
2017-Nov-09 10:30N 51°12' E 002°03'611.5
2017-Nov-09 10:01N 51°10' E 001°55'611.4
2017-Nov-09 09:31N 51°07' E 001°47'611.1
2017-Nov-09 09:00N 51°03' E 001°41'611.2
2017-Nov-09 08:30N 50°59' E 001°34'611.4
2017-Nov-09 07:59N 50°55' E 001°28'611.8
2017-Nov-09 07:29N 50°49' E 001°25'612.0
2017-Nov-09 06:58N 50°43' E 001°21'612.1
2017-Nov-09 06:29N 50°39' E 001°15'2012.3
2017-Nov-09 04:51N 50°29' E 000°48'2112.5
2017-Nov-09 03:11N 50°23' E 000°16'712.1
2017-Nov-09 02:35N 50°21' E 000°05'112.1
2017-Nov-09 02:29N 50°20' E 000°03'  

Dump ship's entire track history